Bronderslev, Denmark
Current Conditions -  °F | °C
As of 4:20 AM on Tuesday 27 Jan 2015 (Local Time) from EKYT Reporting Station
Clear Clear  
Wind Chill: 34°   Ceiling: Unl
Heat Index: 39°   Visibility: 6mi
Dew Point: 34°   Wind: 8mph
Humidity: 81%   Direction: 320°NW
Pressure: 29.8"   Gusts: NA
Location:  57.27°N, 9.94°E
Report Text: EKYT 270320Z 32007KT 290V350 CAVOK 04/01 Q1009 R26/CLRD//
Loading
Personal Weather Stations






























Interactive Weather Map New forecast layout! Learn more

10-Day Weather Forecast

Advertisements
Track Severe Weather on mobile